Ibicuy, Argentina
Current Conditions -  °F | °C
As of 7:00 PM on Monday 26 Jan 2015 (Local Time) from SADF Reporting Station
Clear Clear  
Wind Chill: 88°   Ceiling: Unl
Heat Index: 98°   Visibility: 6mi
Dew Point: 75°   Wind: 8mph
Humidity: 66%   Direction: 50°NE
Pressure: 29.68"   Gusts: NA
Location:  33.73°S, 59.17°W
Report Text: SADF 262200Z 05007KT CAVOK 31/24 Q1005
Loading
Personal Weather Stations






























Interactive Weather Map New forecast layout! Learn more

10-Day Weather Forecast

Advertisements
Track Severe Weather on mobile